createdAt,value
2022-11-23T00:02:06.315Z,89.72
2022-11-23T00:04:32.858Z,88.98
2022-11-23T00:06:59.383Z,88.76
2022-11-23T00:09:25.829Z,88.95
2022-11-23T00:11:52.341Z,88.35
2022-11-23T00:14:18.777Z,88.57
2022-11-23T00:16:45.249Z,88.28
2022-11-23T00:19:11.725Z,88.13
2022-11-23T00:21:38.225Z,88.82
2022-11-23T00:24:05.087Z,88.64
2022-11-23T00:26:31.606Z,89.03
2022-11-23T00:28:58.107Z,88.76
2022-11-23T00:31:25.636Z,88.96
2022-11-23T00:33:54.153Z,89.43
2022-11-23T00:36:22.579Z,89.23
2022-11-23T00:38:50.158Z,89.54
2022-11-23T00:41:22.646Z,89.66
2022-11-23T00:43:49.875Z,89.93
2022-11-23T00:46:20.608Z,89.95
2022-11-23T00:48:49.661Z,89.79
2022-11-23T00:51:18.713Z,89.89
2022-11-23T00:53:45.838Z,90.17
2022-11-23T00:56:13.151Z,90.08
2022-11-23T00:58:39.621Z,90.69
2022-11-23T01:01:08.184Z,90.52
2022-11-23T01:03:35.681Z,90.48
2022-11-23T01:06:07.049Z,90.89
2022-11-23T01:08:33.587Z,90.93
2022-11-23T01:11:02.685Z,91.02
2022-11-23T01:13:29.916Z,91.18
2022-11-23T01:15:56.525Z,91.24
2022-11-23T01:18:24.413Z,91.53
2022-11-23T01:20:51.156Z,91.55
2022-11-23T01:23:17.855Z,91.22
2022-11-23T01:25:44.498Z,91.42
2022-11-23T01:28:11.112Z,91.46
2022-11-23T01:30:37.662Z,90.80
2022-11-23T01:33:04.471Z,90.50
2022-11-23T01:35:31.231Z,90.07
2022-11-23T01:37:57.745Z,90.32
2022-11-23T01:40:24.434Z,90.27
2022-11-23T01:43:01.344Z,89.76
2022-11-23T01:45:35.328Z,89.23
2022-11-23T01:48:04.787Z,88.91
2022-11-23T01:50:31.371Z,88.76
2022-11-23T01:52:58.362Z,88.81
2022-11-23T01:55:26.611Z,88.60
2022-11-23T01:57:53.826Z,88.38
2022-11-23T02:00:20.445Z,87.90
2022-11-23T02:02:57.745Z,87.64
2022-11-23T02:05:30.706Z,87.54
2022-11-23T02:07:59.473Z,87.07
2022-11-23T02:10:26.811Z,87.06
2022-11-23T02:12:54.560Z,87.45
2022-11-23T02:15:21.165Z,87.10
2022-11-23T02:17:48.054Z,87.48
2022-11-23T02:20:18.356Z,87.29
2022-11-23T02:23:15.901Z,86.86
2022-11-23T02:25:45.544Z,86.19
2022-11-23T02:28:15.835Z,86.74
2022-11-23T02:30:44.257Z,86.46
2022-11-23T02:33:10.775Z,86.09
2022-11-23T02:35:51.517Z,86.17
2022-11-23T02:38:19.175Z,85.85
2022-11-23T02:40:46.054Z,85.39
2022-11-23T02:43:12.644Z,85.54
2022-11-23T02:45:41.779Z,85.18
2022-11-23T02:48:08.628Z,85.38
2022-11-23T02:50:35.278Z,85.25
2022-11-23T02:53:01.783Z,85.25
2022-11-23T02:55:28.690Z,85.68
2022-11-23T02:57:55.115Z,85.09
2022-11-23T03:00:21.766Z,85.08
2022-11-23T03:02:48.280Z,84.93
2022-11-23T03:05:14.771Z,85.05
2022-11-23T03:07:41.430Z,84.96
2022-11-23T03:10:08.617Z,85.07
2022-11-23T03:12:35.230Z,84.94
2022-11-23T03:15:01.757Z,84.86
2022-11-23T03:17:28.237Z,85.05
2022-11-23T03:19:54.819Z,85.19
2022-11-23T03:22:21.663Z,85.59
2022-11-23T03:24:48.365Z,85.63
2022-11-23T03:27:15.052Z,86.36
2022-11-23T03:29:41.488Z,86.61
2022-11-23T03:32:07.972Z,86.47
2022-11-23T03:34:34.759Z,87.11
2022-11-23T03:37:01.831Z,87.42
2022-11-23T03:39:28.269Z,87.66
2022-11-23T03:41:54.738Z,87.82
2022-11-23T03:44:21.176Z,88.57
2022-11-23T03:46:47.703Z,88.59
2022-11-23T03:49:14.827Z,89.12
2022-11-23T03:51:41.329Z,89.16
2022-11-23T03:54:08.320Z,89.31
2022-11-23T03:56:35.283Z,89.13
2022-11-23T03:59:01.965Z,89.18
2022-11-23T04:01:28.565Z,89.27
2022-11-23T04:03:55.424Z,89.21
2022-11-23T04:06:22.240Z,89.20
2022-11-23T04:08:48.835Z,88.89
2022-11-23T04:11:15.340Z,89.05
2022-11-23T04:13:41.884Z,89.17
2022-11-23T04:16:08.843Z,88.97
2022-11-23T04:18:35.386Z,88.53
2022-11-23T04:21:01.966Z,88.77
2022-11-23T04:23:28.546Z,88.96
2022-11-23T04:25:55.050Z,88.92
2022-11-23T04:28:21.484Z,88.78
2022-11-23T04:30:48.084Z,89.23
2022-11-23T04:33:14.703Z,88.73
2022-11-23T04:35:41.200Z,88.52
2022-11-23T04:38:07.662Z,88.70
2022-11-23T04:40:34.204Z,88.24
2022-11-23T04:43:02.141Z,88.00
2022-11-23T04:45:28.751Z,88.28
2022-11-23T04:47:55.242Z,87.47
2022-11-23T04:50:21.772Z,87.70
2022-11-23T04:52:48.267Z,87.92
2022-11-23T04:55:14.784Z,87.80
2022-11-23T04:57:41.210Z,88.22
2022-11-23T05:00:08.467Z,87.97
2022-11-23T05:02:34.914Z,88.20
2022-11-23T05:05:01.627Z,88.52
2022-11-23T05:07:28.144Z,88.21
2022-11-23T05:09:54.634Z,88.49
2022-11-23T05:12:21.169Z,88.67
2022-11-23T05:14:47.639Z,88.47
2022-11-23T05:17:14.121Z,88.54
2022-11-23T05:19:40.899Z,88.36
2022-11-23T05:22:07.487Z,88.85
2022-11-23T05:24:34.574Z,88.68
2022-11-23T05:27:01.196Z,88.67
2022-11-23T05:29:27.634Z,89.08
2022-11-23T05:31:54.608Z,89.08
2022-11-23T05:34:21.157Z,89.32
2022-11-23T05:36:47.598Z,88.88
2022-11-23T05:39:14.053Z,89.24
2022-11-23T05:41:40.553Z,89.57
2022-11-23T05:44:06.998Z,89.65
2022-11-23T05:46:33.471Z,89.47
2022-11-23T05:48:59.894Z,89.55
2022-11-23T05:51:26.318Z,89.57
2022-11-23T05:53:53.310Z,89.19
2022-11-23T05:56:19.881Z,89.02
2022-11-23T05:58:46.318Z,89.27
2022-11-23T06:01:13.639Z,89.57
2022-11-23T06:03:40.118Z,89.34
2022-11-23T06:06:06.682Z,89.35
2022-11-23T06:08:33.192Z,89.56
2022-11-23T06:11:02.706Z,89.50
2022-11-23T06:13:29.276Z,89.51
2022-11-23T06:15:55.706Z,88.86
2022-11-23T06:18:22.197Z,88.80
2022-11-23T06:20:48.677Z,88.49
2022-11-23T06:23:15.167Z,88.72
2022-11-23T06:25:41.843Z,89.39
2022-11-23T06:28:08.438Z,89.11
2022-11-23T06:30:34.893Z,89.45
2022-11-23T06:33:05.438Z,89.34
2022-11-23T06:35:31.891Z,89.56
2022-11-23T06:37:58.381Z,89.63
2022-11-23T06:40:24.839Z,89.78
2022-11-23T06:42:51.378Z,89.88
2022-11-23T06:45:18.049Z,89.87
2022-11-23T06:47:44.558Z,89.77
2022-11-23T06:50:11.616Z,89.73
2022-11-23T06:52:38.071Z,89.76
2022-11-23T06:55:04.826Z,89.29
2022-11-23T06:57:31.646Z,89.98
2022-11-23T06:59:58.117Z,89.67
2022-11-23T07:02:24.541Z,89.69
2022-11-23T07:04:52.989Z,89.64
2022-11-23T07:07:19.532Z,89.83
2022-11-23T07:09:46.102Z,90.07
2022-11-23T07:12:12.560Z,90.31
2022-11-23T07:14:39.100Z,89.59
2022-11-23T07:17:05.526Z,89.78
2022-11-23T07:19:32.416Z,89.59
2022-11-23T07:21:59.205Z,89.47
2022-11-23T07:24:25.732Z,89.56
2022-11-23T07:26:52.234Z,89.53
2022-11-23T07:29:18.730Z,89.12
2022-11-23T07:31:45.199Z,88.54
2022-11-23T07:34:12.034Z,88.77
2022-11-23T07:36:38.711Z,88.05
2022-11-23T07:39:05.205Z,88.08
2022-11-23T07:41:31.875Z,87.99
2022-11-23T07:43:58.371Z,87.31
2022-11-23T07:46:24.833Z,87.47
2022-11-23T07:48:51.292Z,87.75
2022-11-23T07:51:19.665Z,87.33
2022-11-23T07:53:47.372Z,86.79
2022-11-23T07:56:13.828Z,87.09
2022-11-23T07:58:40.274Z,86.77
2022-11-23T08:01:06.775Z,86.51
2022-11-23T08:03:33.215Z,85.79
2022-11-23T08:05:59.751Z,85.30
2022-11-23T08:08:26.319Z,85.58
2022-11-23T08:10:54.209Z,85.07
2022-11-23T08:13:22.279Z,85.16
2022-11-23T08:15:55.027Z,84.64
2022-11-23T08:18:23.180Z,84.89
2022-11-23T08:20:49.961Z,84.27
2022-11-23T08:23:16.525Z,83.26
2022-11-23T08:25:42.987Z,82.79
2022-11-23T08:28:09.481Z,81.80
2022-11-23T08:30:36.088Z,82.73
2022-11-23T08:33:07.397Z,82.21
2022-11-23T08:35:35.290Z,81.61
2022-11-23T08:38:01.902Z,80.58
2022-11-23T08:40:28.490Z,79.94
2022-11-23T08:42:55.730Z,79.19
2022-11-23T08:45:22.458Z,78.55
2022-11-23T08:47:49.140Z,77.65
2022-11-23T08:50:15.790Z,77.05
2022-11-23T08:52:42.344Z,76.84
2022-11-23T08:55:09.124Z,76.85
2022-11-23T08:57:35.815Z,75.87
2022-11-23T09:00:03.758Z,76.02
2022-11-23T09:02:30.246Z,75.48
2022-11-23T09:04:57.094Z,75.12
2022-11-23T09:07:23.813Z,75.09
2022-11-23T09:09:50.284Z,75.30
2022-11-23T09:12:16.838Z,74.80
2022-11-23T09:14:43.402Z,74.82
2022-11-23T09:17:09.911Z,74.72
2022-11-23T09:19:36.749Z,74.63
2022-11-23T09:22:03.411Z,74.83
2022-11-23T09:24:30.081Z,75.02
2022-11-23T09:26:56.782Z,74.15
2022-11-23T09:29:23.329Z,74.78
2022-11-23T09:31:49.846Z,73.97
2022-11-23T09:34:16.592Z,73.28
2022-11-23T09:36:43.046Z,72.95
2022-11-23T09:39:09.547Z,72.93
2022-11-23T09:42:00.271Z,73.40
2022-11-23T09:44:41.936Z,73.31
2022-11-23T09:47:46.172Z,73.11
2022-11-23T09:50:23.126Z,73.24
2022-11-23T09:52:51.171Z,72.51
2022-11-23T09:55:36.531Z,72.12
2022-11-23T09:58:05.968Z,71.55
2022-11-23T10:01:15.758Z,70.58
2022-11-23T10:03:48.886Z,70.79
2022-11-23T10:06:26.393Z,70.81
2022-11-23T10:09:00.017Z,70.60
2022-11-23T10:11:44.267Z,69.86
2022-11-23T10:14:24.027Z,69.49
2022-11-23T10:16:56.334Z,69.20
2022-11-23T10:19:55.288Z,69.13
2022-11-23T10:22:41.238Z,69.12
2022-11-23T10:25:17.092Z,69.48
2022-11-23T10:27:47.872Z,69.26
2022-11-23T10:30:16.606Z,69.13
2022-11-23T10:33:24.588Z,68.16
2022-11-23T10:35:51.068Z,68.68
2022-11-23T10:38:20.141Z,68.05
2022-11-23T10:40:54.624Z,68.22
2022-11-23T10:43:25.378Z,67.78
2022-11-23T10:45:54.778Z,68.04
2022-11-23T10:48:35.282Z,67.87
2022-11-23T10:51:40.316Z,68.27
2022-11-23T10:54:21.455Z,68.03
2022-11-23T10:56:50.140Z,67.45
2022-11-23T10:59:26.950Z,67.29
2022-11-23T11:02:17.971Z,66.53
2022-11-23T11:04:45.956Z,66.60
2022-11-23T11:07:24.009Z,66.96
2022-11-23T11:09:57.442Z,66.41
2022-11-23T11:12:25.003Z,66.51
2022-11-23T11:15:15.352Z,66.24
2022-11-23T11:17:42.305Z,66.80
2022-11-23T11:20:28.232Z,66.35
2022-11-23T11:23:16.014Z,66.42
2022-11-23T11:25:42.997Z,66.73
2022-11-23T11:28:40.610Z,66.47
2022-11-23T11:31:30.300Z,66.60
2022-11-23T11:34:27.843Z,65.85
2022-11-23T11:37:02.429Z,66.45
2022-11-23T11:40:10.660Z,66.69
2022-11-23T11:43:07.769Z,66.95
2022-11-23T11:45:46.290Z,66.82
2022-11-23T11:48:27.741Z,65.95
2022-11-23T11:51:00.688Z,66.40
2022-11-23T11:53:36.911Z,66.22
2022-11-23T11:56:23.246Z,66.05
2022-11-23T11:58:57.023Z,66.29
2022-11-23T12:01:57.291Z,65.99
2022-11-23T12:04:35.767Z,66.08
2022-11-23T12:07:10.555Z,65.80
2022-11-23T12:09:40.627Z,65.43
2022-11-23T12:12:16.278Z,64.14
2022-11-23T12:14:43.998Z,64.23
2022-11-23T12:17:33.954Z,64.26
2022-11-23T12:20:12.274Z,63.68
2022-11-23T12:23:17.985Z,63.34
2022-11-23T12:25:58.057Z,63.78
2022-11-23T12:28:58.790Z,63.62
2022-11-23T12:31:40.797Z,64.71
2022-11-23T12:34:18.908Z,63.77
2022-11-23T12:37:07.127Z,64.04
2022-11-23T12:39:55.288Z,64.62
2022-11-23T12:42:53.510Z,63.94
2022-11-23T12:45:45.301Z,64.26
2022-11-23T12:48:18.746Z,64.21
2022-11-23T12:51:01.408Z,64.00
2022-11-23T12:54:01.758Z,63.88
2022-11-23T12:56:44.320Z,64.21
2022-11-23T12:59:11.906Z,64.48
2022-11-23T13:01:47.058Z,64.11
2022-11-23T13:04:41.229Z,64.38
2022-11-23T13:07:41.006Z,64.13
2022-11-23T13:10:21.843Z,64.61
2022-11-23T13:12:51.345Z,64.26
2022-11-23T13:15:36.274Z,63.61
2022-11-23T13:18:28.049Z,63.86
2022-11-23T13:21:12.386Z,63.26
2022-11-23T13:23:40.336Z,62.93
2022-11-23T13:26:12.479Z,63.46
2022-11-23T13:28:38.976Z,63.89
2022-11-23T13:31:20.980Z,64.00
2022-11-23T13:33:50.200Z,64.30
2022-11-23T13:37:10.636Z,64.53
2022-11-23T13:39:39.536Z,65.04
2022-11-23T13:42:06.396Z,64.33
2022-11-23T13:44:33.561Z,64.37
2022-11-23T13:47:01.744Z,64.70
2022-11-23T13:49:31.206Z,65.02
2022-11-23T13:52:22.576Z,65.22
2022-11-23T13:55:10.950Z,65.53
2022-11-23T13:57:42.448Z,65.89
2022-11-23T14:00:47.427Z,65.96
2022-11-23T14:03:51.663Z,65.70
2022-11-23T14:06:40.130Z,65.78
2022-11-23T14:09:28.126Z,66.16
2022-11-23T14:12:03.680Z,65.93
2022-11-23T14:14:49.187Z,65.28
2022-11-23T14:17:59.542Z,65.52
2022-11-23T14:21:05.497Z,65.27
2022-11-23T14:23:40.367Z,66.06
2022-11-23T14:26:25.051Z,65.62
2022-11-23T14:29:26.429Z,65.48
2022-11-23T14:32:05.155Z,65.94
2022-11-23T14:35:02.623Z,65.85
2022-11-23T14:38:04.530Z,66.12
2022-11-23T14:40:46.178Z,66.19
2022-11-23T14:43:17.460Z,65.97
2022-11-23T14:45:44.329Z,66.11
2022-11-23T14:48:28.354Z,66.31
2022-11-23T14:51:01.158Z,66.19
2022-11-23T14:53:31.304Z,66.28
2022-11-23T14:55:59.331Z,66.26
2022-11-23T14:58:30.869Z,66.15
2022-11-23T15:01:02.292Z,67.01
2022-11-23T15:06:25.036Z,66.76
2022-11-23T15:09:08.466Z,66.93
2022-11-23T15:11:36.954Z,66.99
2022-11-23T15:14:03.811Z,67.07
2022-11-23T15:16:40.020Z,66.78
2022-11-23T15:19:39.103Z,66.81
2022-11-23T15:22:05.562Z,66.81
2022-11-23T15:24:32.306Z,66.81
2022-11-23T15:27:12.179Z,66.80
2022-11-23T15:29:40.317Z,66.72
2022-11-23T15:32:32.727Z,67.14
2022-11-23T15:35:04.593Z,67.47
2022-11-23T15:37:32.690Z,67.99
2022-11-23T15:40:00.628Z,68.98
2022-11-23T15:42:28.590Z,70.83
2022-11-23T15:44:55.720Z,71.37
2022-11-23T15:47:27.733Z,73.08
2022-11-23T15:50:02.281Z,74.12
2022-11-23T15:52:35.953Z,74.69
2022-11-23T15:55:09.241Z,75.86
2022-11-23T15:57:37.671Z,75.92
2022-11-23T16:00:06.640Z,76.77
2022-11-23T16:02:33.607Z,77.63
2022-11-23T16:05:11.150Z,77.52
2022-11-23T16:07:51.118Z,79.44
2022-11-23T16:10:25.238Z,79.57
2022-11-23T16:12:54.035Z,80.25
2022-11-23T16:15:47.513Z,81.20
2022-11-23T16:18:14.048Z,81.76
2022-11-23T16:21:02.285Z,81.90
2022-11-23T16:23:41.977Z,82.93
2022-11-23T16:26:08.831Z,83.98
2022-11-23T16:28:39.075Z,84.70
2022-11-23T16:31:06.437Z,84.71
2022-11-23T16:33:34.153Z,84.95
2022-11-23T16:36:00.822Z,85.88
2022-11-23T16:38:27.564Z,86.41
2022-11-23T16:40:54.084Z,86.10
2022-11-23T16:43:21.355Z,86.69
2022-11-23T16:45:51.311Z,86.50
2022-11-23T16:48:24.057Z,86.79
2022-11-23T16:50:51.311Z,86.77
2022-11-23T16:53:19.417Z,87.02
2022-11-23T16:55:50.220Z,87.52
2022-11-23T16:58:17.028Z,88.08
2022-11-23T17:00:44.148Z,87.59
2022-11-23T17:03:18.692Z,88.29
2022-11-23T17:05:45.639Z,87.95
2022-11-23T17:08:15.626Z,88.74
2022-11-23T17:10:45.170Z,88.04
2022-11-23T17:13:20.296Z,88.31
2022-11-23T17:15:46.758Z,88.51
2022-11-23T17:18:15.014Z,88.72
2022-11-23T17:20:42.176Z,88.61
2022-11-23T17:23:09.162Z,88.85
2022-11-23T17:25:37.642Z,88.62
2022-11-23T17:28:05.357Z,88.86
2022-11-23T17:30:33.101Z,88.91
2022-11-23T17:33:00.604Z,88.49
2022-11-23T17:35:27.636Z,88.62
2022-11-23T17:37:54.229Z,88.70
2022-11-23T17:40:22.321Z,89.00
2022-11-23T17:42:49.102Z,88.91
2022-11-23T17:45:15.955Z,88.75
2022-11-23T17:47:44.724Z,88.74
2022-11-23T17:50:14.176Z,89.08
2022-11-23T17:52:44.351Z,88.92
2022-11-23T17:55:12.631Z,88.77
2022-11-23T17:57:39.781Z,88.68
2022-11-23T18:00:20.611Z,88.90
2022-11-23T18:02:47.565Z,88.68
2022-11-23T18:05:19.711Z,89.04
2022-11-23T18:07:48.765Z,88.88
2022-11-23T18:10:15.804Z,88.93
2022-11-23T18:12:44.671Z,88.85
2022-11-23T18:15:11.927Z,88.98
2022-11-23T18:17:38.711Z,88.92
2022-11-23T18:20:08.143Z,88.88
2022-11-23T18:22:35.118Z,88.90
2022-11-23T18:25:01.725Z,88.90
2022-11-23T18:27:29.765Z,88.71
2022-11-23T18:29:56.495Z,88.53
2022-11-23T18:32:23.069Z,88.76
2022-11-23T18:34:49.542Z,88.17
2022-11-23T18:37:16.118Z,88.46
2022-11-23T18:39:42.655Z,88.71
2022-11-23T18:42:09.193Z,88.49
2022-11-23T18:44:35.853Z,88.45
2022-11-23T18:47:02.423Z,88.72
2022-11-23T18:49:28.970Z,88.53
2022-11-23T18:51:55.481Z,89.13
2022-11-23T18:54:21.970Z,88.99
2022-11-23T18:56:48.624Z,88.37
2022-11-23T18:59:28.968Z,88.58
2022-11-23T19:02:01.734Z,88.27
2022-11-23T19:04:28.337Z,88.75
2022-11-23T19:06:54.763Z,88.58
2022-11-23T19:09:21.229Z,88.97
2022-11-23T19:11:47.682Z,88.31
2022-11-23T19:14:14.257Z,88.28
2022-11-23T19:16:41.108Z,88.53
2022-11-23T19:19:07.710Z,88.03
2022-11-23T19:21:35.822Z,88.19
2022-11-23T19:24:03.539Z,88.01
2022-11-23T19:26:31.686Z,87.97
2022-11-23T19:28:59.474Z,87.98
2022-11-23T19:31:28.566Z,87.49
2022-11-23T19:34:01.521Z,87.78
2022-11-23T19:36:29.842Z,87.58
2022-11-23T19:38:58.707Z,87.55
2022-11-23T19:41:29.769Z,87.75
2022-11-23T19:43:58.460Z,87.54
2022-11-23T19:46:26.549Z,87.86
2022-11-23T19:48:55.227Z,88.02
2022-11-23T19:51:21.790Z,88.33
2022-11-23T19:53:49.335Z,88.17
2022-11-23T19:56:20.898Z,88.50
2022-11-23T19:58:51.629Z,88.48
2022-11-23T20:01:19.891Z,88.37
2022-11-23T20:03:48.812Z,88.58
2022-11-23T20:06:18.525Z,88.77
2022-11-23T20:08:45.476Z,88.56
2022-11-23T20:11:14.294Z,88.63
2022-11-23T20:13:41.395Z,89.03
2022-11-23T20:16:10.846Z,88.33
2022-11-23T20:18:37.390Z,88.46
2022-11-23T20:21:04.390Z,88.35
2022-11-23T20:23:30.839Z,88.35
2022-11-23T20:25:57.908Z,88.23
2022-11-23T20:28:25.594Z,88.35
2022-11-23T20:30:52.403Z,88.52
2022-11-23T20:33:19.576Z,88.10
2022-11-23T20:35:48.415Z,88.40
2022-11-23T20:38:17.752Z,88.40
2022-11-23T20:40:44.202Z,88.70
2022-11-23T20:43:10.656Z,88.67
2022-11-23T20:45:37.191Z,88.66
2022-11-23T20:48:03.784Z,88.37
2022-11-23T20:50:32.064Z,88.59
2022-11-23T20:53:03.254Z,88.65
2022-11-23T20:55:32.197Z,88.96
2022-11-23T20:57:58.866Z,88.67
2022-11-23T21:00:25.437Z,88.91
2022-11-23T21:02:53.977Z,88.45
2022-11-23T21:05:20.766Z,88.86
2022-11-23T21:07:48.003Z,88.71
2022-11-23T21:10:33.931Z,88.59
2022-11-23T21:13:19.717Z,88.64
2022-11-23T21:15:46.506Z,88.35
2022-11-23T21:18:13.302Z,88.43
2022-11-23T21:20:40.983Z,88.71
2022-11-23T21:23:07.498Z,88.78
2022-11-23T21:25:34.939Z,88.93
2022-11-23T21:28:03.260Z,88.82
2022-11-23T21:30:30.733Z,88.75
2022-11-23T21:32:57.682Z,88.76
2022-11-23T21:35:24.495Z,88.87
2022-11-23T21:37:51.277Z,88.66
2022-11-23T21:40:18.555Z,88.54
2022-11-23T21:42:45.027Z,88.34
2022-11-23T21:45:11.997Z,88.55
2022-11-23T21:47:38.646Z,88.31
2022-11-23T21:50:05.543Z,88.37
2022-11-23T21:52:32.002Z,88.47
2022-11-23T21:54:58.461Z,88.86
2022-11-23T21:57:24.954Z,88.77
2022-11-23T21:59:51.448Z,88.82
2022-11-23T22:02:18.091Z,88.74
2022-11-23T22:04:44.838Z,88.18
2022-11-23T22:07:12.085Z,88.15
2022-11-23T22:09:38.922Z,88.09
2022-11-23T22:12:06.446Z,88.30
2022-11-23T22:14:33.284Z,88.75
2022-11-23T22:17:00.630Z,88.30
2022-11-23T22:19:27.750Z,88.44
2022-11-23T22:21:54.275Z,89.00
2022-11-23T22:24:22.622Z,89.32
2022-11-23T22:26:49.579Z,88.95
2022-11-23T22:29:16.499Z,88.62
2022-11-23T22:31:43.760Z,88.82
2022-11-23T22:34:12.459Z,88.76
2022-11-23T22:36:39.275Z,88.47
2022-11-23T22:39:06.840Z,88.32
2022-11-23T22:41:37.014Z,88.37
2022-11-23T22:44:09.403Z,88.98
2022-11-23T22:46:37.357Z,88.86
2022-11-23T22:49:04.530Z,89.21
2022-11-23T22:51:31.118Z,89.14
2022-11-23T22:54:00.174Z,89.18
2022-11-23T22:56:27.856Z,89.11
2022-11-23T22:58:54.946Z,89.02
2022-11-23T23:01:24.082Z,89.03
2022-11-23T23:03:55.656Z,89.19
2022-11-23T23:06:25.405Z,88.93
2022-11-23T23:08:57.562Z,89.48
2022-11-23T23:11:26.237Z,89.48
2022-11-23T23:13:54.567Z,89.39
2022-11-23T23:16:21.626Z,89.37
2022-11-23T23:18:48.248Z,89.31
2022-11-23T23:21:20.406Z,89.22
2022-11-23T23:23:49.834Z,89.18
2022-11-23T23:26:18.751Z,89.43
2022-11-23T23:28:46.235Z,89.43
2022-11-23T23:31:16.620Z,89.01
2022-11-23T23:33:43.942Z,89.71
2022-11-23T23:36:13.208Z,89.82
2022-11-23T23:38:40.339Z,89.47
2022-11-23T23:41:08.698Z,89.70
2022-11-23T23:43:36.278Z,89.38
2022-11-23T23:46:06.190Z,89.75
2022-11-23T23:48:38.310Z,89.16
2022-11-23T23:51:06.803Z,89.69
2022-11-23T23:53:34.557Z,89.45
2022-11-23T23:56:04.323Z,89.60
2022-11-23T23:58:31.616Z,89.66
